Fsl New York — 9VBQ8 — position and weather

sailwx.info

Track history (hours):
 
Tides and Currents Weather Stations Pressure Air Temp Water Temp Dewpoint Dewpoint Depression Visibility Wind Speed Wind Dir Waves Ship Positions

Fsl New York

Last reported at 2016-Jun-21 04:32 UTC. Time now 2016-Jun-25 10:41 UTC.
Position N 55°33' E 015°16'.

Length 138 m; draft 7.1 m.

Type: Tanker. MMSI: 565174000.

Date/timePositionNaut miles runAvg speedWind from/ knotsBaromVisibWave heightAir tempDewpointWater temp
2016-Jun-21 04:32N 55°33' E 015°16'8 8.6
2016-Jun-21 03:33N 55°30' E 015°02'9 8.6
2016-Jun-21 02:33N 55°26' E 014°48'9 8.7
2016-Jun-21 01:33N 55°21' E 014°36'9 8.7
2016-Jun-21 00:33N 55°14' E 014°26'8 7.9
2016-Jun-20 23:33N 55°10' E 014°14'8 7.9
2016-Jun-20 22:33N 55°10' E 014°00'7 7.4
2016-Jun-20 21:33N 55°10' E 013°47'7 7.4
2016-Jun-20 20:33N 55°10' E 013°34'7 7.5
2016-Jun-20 19:33N 55°10' E 013°21'7 7.3
2016-Jun-20 18:33N 55°10' E 013°08'9 8.9
2016-Jun-20 17:32N 55°14' E 012°54'1010.4
2016-Jun-20 16:33N 55°18' E 012°38'9 9.2
2016-Jun-20 15:33N 55°27' E 012°40'9 8.8
2016-Jun-20 14:34N 55°36' E 012°42'9 9.5
2016-Jun-20 13:33N 55°45' E 012°41'10 9.7
2016-Jun-20 12:33N 55°55' E 012°38'10 9.7
2016-Jun-20 11:33N 56°05' E 012°36'1110.6
2016-Jun-20 10:33N 56°11' E 012°21'3511.7
2016-Jun-20 07:33N 56°42' E 011°52'1313.5
2016-Jun-20 06:33N 56°55' E 011°45'2613.2
2016-Jun-20 04:33N 57°20' E 011°29'1312.8
2016-Jun-20 03:33N 57°31' E 011°17'1313.3
2016-Jun-20 02:33N 57°40' E 010°59'1413.5
2016-Jun-20 01:32N 57°48' E 010°38'1514.9
2016-Jun-20 00:33N 57°48' E 010°10'1313.3
2016-Jun-19 23:33N 57°47' E 009°45'12 9.9
2016-Jun-19 22:20N 57°46' E 009°23'9 9.9
2016-Jun-19 21:26N 57°46' E 009°06'8 9.6
2016-Jun-19 20:33N 57°45' E 008°50'14 9.4
2016-Jun-19 19:07N 57°43' E 008°25'5 8.9
2016-Jun-19 18:33N 57°43' E 008°16'123 6.8
2016-Jun-19 00:28N 55°46' E 007°08'910.1
2016-Jun-18 23:33N 55°38' E 007°17'1111.2
2016-Jun-18 22:33N 55°29' E 007°29'1111.3
2016-Jun-18 21:33N 55°19' E 007°40'9 8.6
2016-Jun-18 20:33N 55°18' E 007°55'1212.0
2016-Jun-18 19:33N 55°25' E 008°12'8 8.0
2016-Jun-18 18:29N 55°28' E 008°26'0 0.0
2016-Jun-18 17:27N 55°28' E 008°26'0 0.0
2016-Jun-18 16:26N 55°28' E 008°26'0 0.0
2016-Jun-18 15:32N 55°28' E 008°26'0 0.0
2016-Jun-18 14:32N 55°28' E 008°26'0 0.0
2016-Jun-18 13:33N 55°28' E 008°26'0 0.0
2016-Jun-18 12:17N 55°28' E 008°26'0 0.0
2016-Jun-18 11:20N 55°28' E 008°26'0 0.0
2016-Jun-18 10:32N 55°28' E 008°26'0 0.0
2016-Jun-18 09:32N 55°28' E 008°26'0 0.0
2016-Jun-18 08:20N 55°28' E 008°26'0 0.0
2016-Jun-18 07:26N 55°28' E 008°26'0 0.0
2016-Jun-18 06:11N 55°28' E 008°26'0 0.0
2016-Jun-18 05:26N 55°28' E 008°26'0 0.0
2016-Jun-18 03:14N 55°28' E 008°26'0 0.0
2016-Jun-18 02:29N 55°28' E 008°26'0 0.0
2016-Jun-18 01:32N 55°28' E 008°26'0 0.0
2016-Jun-18 00:32N 55°28' E 008°26'0 0.0
2016-Jun-17 23:32N 55°28' E 008°26'0 0.0
2016-Jun-17 22:32N 55°28' E 008°26'0 0.0
2016-Jun-17 21:18N 55°28' E 008°26'0 0.0
2016-Jun-17 20:18N 55°28' E 008°26'0 0.0
2016-Jun-17 19:17N 55°28' E 008°26'0 0.0
2016-Jun-17 18:23N 55°28' E 008°26'0 0.0
2016-Jun-17 17:20N 55°28' E 008°26'0 0.0
2016-Jun-17 16:26N 55°28' E 008°26'0 0.0
2016-Jun-17 15:26N 55°28' E 008°26'0 0.0
2016-Jun-17 14:26N 55°28' E 008°26'0 0.0
2016-Jun-17 13:29N 55°28' E 008°26'0 0.0
2016-Jun-17 12:33N 55°28' E 008°26'2 2.4
2016-Jun-17 11:32N 55°29' E 008°22'9 9.4
2016-Jun-17 10:33N 55°26' E 008°06'0 0.0
2016-Jun-17 09:33N 55°26' E 008°06'0 0.1
2016-Jun-17 08:33N 55°26' E 008°06'0 0.4
2016-Jun-17 07:32N 55°26' E 008°06'1010.1
2016-Jun-17 06:34N 55°17' E 007°58'1212.3
2016-Jun-17 05:33N 55°09' E 007°42'1312.5
2016-Jun-17 04:33N 55°00' E 007°26'1212.5
2016-Jun-17 03:33N 54°51' E 007°10'1211.8
2016-Jun-17 02:34N 54°46' E 006°52'8510.3
2016-Jun-16 18:21N 54°09' E 004°41'1212.8
2016-Jun-16 17:24N 53°57' E 004°36'1112.7
2016-Jun-16 16:33N 53°49' E 004°25'6813.1
2016-Jun-16 11:21N 52°52' E 003°20'3612.8
2016-Jun-16 08:33N 52°17' E 003°15'1312.0
2016-Jun-16 07:28N 52°09' E 003°32'1213.5
2016-Jun-16 06:33N 52°03' E 003°50'1211.8
2016-Jun-16 05:33N 51°59' E 004°07'9 0.6
2016-Jun-15 15:05N 51°53' E 004°18'0 0.0
2016-Jun-14 21:14N 51°53' E 004°18'0 0.0
2016-Jun-14 20:32N 51°53' E 004°18'0 0.0
2016-Jun-14 19:32N 51°53' E 004°18'0 0.0
2016-Jun-14 18:32N 51°53' E 004°18'0 0.0
2016-Jun-14 17:26N 51°53' E 004°18'0 0.0
2016-Jun-14 16:29N 51°53' E 004°18'0 0.0
2016-Jun-14 15:29N 51°53' E 004°18'0 0.0
2016-Jun-14 14:34N 51°53' E 004°18'0 0.0
2016-Jun-14 13:34N 51°53' E 004°18'0 0.0
2016-Jun-14 12:34N 51°53' E 004°18'0 0.0
2016-Jun-14 11:33N 51°53' E 004°18'0 0.0
2016-Jun-14 10:33N 51°53' E 004°18'0 0.0
2016-Jun-14 09:34N 51°53' E 004°18'0 0.0
2016-Jun-14 08:34N 51°53' E 004°18'0 0.0
2016-Jun-14 07:34N 51°53' E 004°18'0 0.0
2016-Jun-14 05:34N 51°53' E 004°18'0 0.0
2016-Jun-14 04:33N 51°53' E 004°18'0 0.0
2016-Jun-14 03:33N 51°53' E 004°18'0 0.0
2016-Jun-14 02:34N 51°53' E 004°18'0 0.1
2016-Jun-14 01:34N 51°53' E 004°18'5 5.3
2016-Jun-14 00:33N 51°56' E 004°12'1010.0
2016-Jun-13 23:33N 52°00' E 003°57'30 9.1
2016-Jun-13 20:13N 51°41' E 003°18'913.1
2016-Jun-13 19:33N 51°34' E 003°25'1110.8
2016-Jun-13 18:33N 51°26' E 003°36'7 7.5
2016-Jun-13 17:33N 51°22' E 003°46'9 9.3
2016-Jun-13 16:33N 51°26' E 003°59'9 8.7
2016-Jun-13 15:33N 51°24' E 004°13'8 8.4
2016-Jun-13 14:33N 51°17' E 004°20'0 0.2
2016-Jun-13 13:28N 51°17' E 004°20'0 0.2
2016-Jun-13 12:31N 51°17' E 004°20'0 0.0
2016-Jun-13 11:33N 51°17' E 004°20'0 0.0
2016-Jun-13 10:33N 51°17' E 004°20'0 0.0
2016-Jun-13 09:33N 51°17' E 004°20'0 0.0
2016-Jun-13 08:33N 51°17' E 004°20'0 0.0
2016-Jun-13 07:33N 51°17' E 004°20'0 0.0
2016-Jun-13 06:33N 51°17' E 004°20'0 0.0
2016-Jun-13 05:33N 51°17' E 004°20'0 0.0
2016-Jun-13 04:33N 51°17' E 004°20'0 0.0
2016-Jun-13 03:33N 51°17' E 004°20'0 0.0
2016-Jun-13 02:33N 51°17' E 004°20'0 0.0
2016-Jun-13 01:33N 51°17' E 004°20'0 0.0
2016-Jun-13 00:33N 51°17' E 004°20'0 0.0
2016-Jun-12 23:33N 51°17' E 004°20'0 0.0
2016-Jun-12 22:33N 51°17' E 004°20'0 0.0
2016-Jun-12 21:33N 51°17' E 004°20'0 0.0
2016-Jun-12 20:33N 51°17' E 004°20'0 0.0
2016-Jun-12 19:33N 51°17' E 004°20'0 0.0
2016-Jun-12 18:33N 51°17' E 004°20'0 0.0
2016-Jun-12 17:33N 51°17' E 004°20'0 0.0
2016-Jun-12 16:33N 51°17' E 004°20'4 4.3
2016-Jun-12 15:34N 51°21' E 004°18'0 0.5
2016-Jun-12 14:33N 51°21' E 004°17'7 7.0
2016-Jun-12 13:33N 51°22' E 004°06'5 5.4
2016-Jun-12 12:33N 51°24' E 003°57'8 8.3
2016-Jun-12 11:33N 51°22' E 003°44'7 7.3
2016-Jun-12 10:33N 51°26' E 003°34'10 9.6
2016-Jun-12 09:33N 51°24' E 003°19'1110.6
2016-Jun-12 08:32N 51°24' E 003°01'1111.1
2016-Jun-12 07:33N 51°21' E 002°44'7 5.1
2016-Jun-12 06:08N 51°20' E 002°33'0 0.0
2016-Jun-12 04:32N 51°20' E 002°33'0 0.1
2016-Jun-12 03:32N 51°20' E 002°33'0 0.1
2016-Jun-12 02:33N 51°20' E 002°33'0 0.0
2016-Jun-12 01:33N 51°20' E 002°33'0 0.0
2016-Jun-12 00:33N 51°20' E 002°33'0 0.0
2016-Jun-11 23:33N 51°20' E 002°33'0 0.0
2016-Jun-11 22:33N 51°20' E 002°33'0 0.1
2016-Jun-11 21:32N 51°20' E 002°33'0 0.0
2016-Jun-11 20:33N 51°20' E 002°33'0 0.0
2016-Jun-11 19:30N 51°20' E 002°33'0 0.0
2016-Jun-11 18:33N 51°20' E 002°33'0 0.0
2016-Jun-11 17:18N 51°20' E 002°33'0 0.0
2016-Jun-11 16:33N 51°20' E 002°33'0 0.1
2016-Jun-11 15:33N 51°20' E 002°33'0 0.1
2016-Jun-11 14:33N 51°20' E 002°33'0 0.0
2016-Jun-11 13:33N 51°20' E 002°33'0 0.0
2016-Jun-11 12:33N 51°20' E 002°33'0 0.0
2016-Jun-11 11:16N 51°20' E 002°33'0 0.1
2016-Jun-11 10:33N 51°20' E 002°33'0 0.1
2016-Jun-11 09:31N 51°20' E 002°33'0 0.1
2016-Jun-11 08:33N 51°20' E 002°33'0 0.0
2016-Jun-11 07:34N 51°20' E 002°33'0 0.0
2016-Jun-11 06:33N 51°20' E 002°33'0 0.0
2016-Jun-11 05:33N 51°20' E 002°33'  
Track history (hours):
 
Tides and Currents Weather Stations Pressure Air Temp Water Temp Dewpoint Dewpoint Depression Visibility Wind Speed Wind Dir Waves Ship Positions

Fsl New York

Last reported at 2016-Jun-21 04:32 UTC. Time now 2016-Jun-25 10:41 UTC.
Position N 55°33' E 015°16'.

Length 138 m; draft 7.1 m.

Type: Tanker. MMSI: 565174000.

Date/timePositionNaut miles runAvg speedWind from/ knotsBaromVisibWave heightAir tempDewpointWater temp
2016-Jun-21 04:32N 55°33' E 015°16'8 8.6
2016-Jun-21 03:33N 55°30' E 015°02'9 8.6
2016-Jun-21 02:33N 55°26' E 014°48'9 8.7
2016-Jun-21 01:33N 55°21' E 014°36'9 8.7
2016-Jun-21 00:33N 55°14' E 014°26'8 7.9
2016-Jun-20 23:33N 55°10' E 014°14'8 7.9
2016-Jun-20 22:33N 55°10' E 014°00'7 7.4
2016-Jun-20 21:33N 55°10' E 013°47'7 7.4
2016-Jun-20 20:33N 55°10' E 013°34'7 7.5
2016-Jun-20 19:33N 55°10' E 013°21'7 7.3
2016-Jun-20 18:33N 55°10' E 013°08'9 8.9
2016-Jun-20 17:32N 55°14' E 012°54'1010.4
2016-Jun-20 16:33N 55°18' E 012°38'9 9.2
2016-Jun-20 15:33N 55°27' E 012°40'9 8.8
2016-Jun-20 14:34N 55°36' E 012°42'9 9.5
2016-Jun-20 13:33N 55°45' E 012°41'10 9.7
2016-Jun-20 12:33N 55°55' E 012°38'10 9.7
2016-Jun-20 11:33N 56°05' E 012°36'1110.6
2016-Jun-20 10:33N 56°11' E 012°21'3511.7
2016-Jun-20 07:33N 56°42' E 011°52'1313.5
2016-Jun-20 06:33N 56°55' E 011°45'2613.2
2016-Jun-20 04:33N 57°20' E 011°29'1312.8
2016-Jun-20 03:33N 57°31' E 011°17'1313.3
2016-Jun-20 02:33N 57°40' E 010°59'1413.5
2016-Jun-20 01:32N 57°48' E 010°38'1514.9
2016-Jun-20 00:33N 57°48' E 010°10'1313.3
2016-Jun-19 23:33N 57°47' E 009°45'12 9.9
2016-Jun-19 22:20N 57°46' E 009°23'9 9.9
2016-Jun-19 21:26N 57°46' E 009°06'8 9.6
2016-Jun-19 20:33N 57°45' E 008°50'14 9.4
2016-Jun-19 19:07N 57°43' E 008°25'5 8.9
2016-Jun-19 18:33N 57°43' E 008°16'123 6.8
2016-Jun-19 00:28N 55°46' E 007°08'910.1
2016-Jun-18 23:33N 55°38' E 007°17'1111.2
2016-Jun-18 22:33N 55°29' E 007°29'1111.3
2016-Jun-18 21:33N 55°19' E 007°40'9 8.6
2016-Jun-18 20:33N 55°18' E 007°55'1212.0
2016-Jun-18 19:33N 55°25' E 008°12'8 8.0
2016-Jun-18 18:29N 55°28' E 008°26'0 0.0
2016-Jun-18 17:27N 55°28' E 008°26'0 0.0
2016-Jun-18 16:26N 55°28' E 008°26'0 0.0
2016-Jun-18 15:32N 55°28' E 008°26'0 0.0
2016-Jun-18 14:32N 55°28' E 008°26'0 0.0
2016-Jun-18 13:33N 55°28' E 008°26'0 0.0
2016-Jun-18 12:17N 55°28' E 008°26'0 0.0
2016-Jun-18 11:20N 55°28' E 008°26'0 0.0
2016-Jun-18 10:32N 55°28' E 008°26'0 0.0
2016-Jun-18 09:32N 55°28' E 008°26'0 0.0
2016-Jun-18 08:20N 55°28' E 008°26'0 0.0
2016-Jun-18 07:26N 55°28' E 008°26'0 0.0
2016-Jun-18 06:11N 55°28' E 008°26'0 0.0
2016-Jun-18 05:26N 55°28' E 008°26'0 0.0
2016-Jun-18 03:14N 55°28' E 008°26'0 0.0
2016-Jun-18 02:29N 55°28' E 008°26'0 0.0
2016-Jun-18 01:32N 55°28' E 008°26'0 0.0
2016-Jun-18 00:32N 55°28' E 008°26'0 0.0
2016-Jun-17 23:32N 55°28' E 008°26'0 0.0
2016-Jun-17 22:32N 55°28' E 008°26'0 0.0
2016-Jun-17 21:18N 55°28' E 008°26'0 0.0
2016-Jun-17 20:18N 55°28' E 008°26'0 0.0
2016-Jun-17 19:17N 55°28' E 008°26'0 0.0
2016-Jun-17 18:23N 55°28' E 008°26'0 0.0
2016-Jun-17 17:20N 55°28' E 008°26'0 0.0
2016-Jun-17 16:26N 55°28' E 008°26'0 0.0
2016-Jun-17 15:26N 55°28' E 008°26'0 0.0
2016-Jun-17 14:26N 55°28' E 008°26'0 0.0
2016-Jun-17 13:29N 55°28' E 008°26'0 0.0
2016-Jun-17 12:33N 55°28' E 008°26'2 2.4
2016-Jun-17 11:32N 55°29' E 008°22'9 9.4
2016-Jun-17 10:33N 55°26' E 008°06'0 0.0
2016-Jun-17 09:33N 55°26' E 008°06'0 0.1
2016-Jun-17 08:33N 55°26' E 008°06'0 0.4
2016-Jun-17 07:32N 55°26' E 008°06'1010.1
2016-Jun-17 06:34N 55°17' E 007°58'1212.3
2016-Jun-17 05:33N 55°09' E 007°42'1312.5
2016-Jun-17 04:33N 55°00' E 007°26'1212.5
2016-Jun-17 03:33N 54°51' E 007°10'1211.8
2016-Jun-17 02:34N 54°46' E 006°52'8510.3
2016-Jun-16 18:21N 54°09' E 004°41'1212.8
2016-Jun-16 17:24N 53°57' E 004°36'1112.7
2016-Jun-16 16:33N 53°49' E 004°25'6813.1
2016-Jun-16 11:21N 52°52' E 003°20'3612.8
2016-Jun-16 08:33N 52°17' E 003°15'1312.0
2016-Jun-16 07:28N 52°09' E 003°32'1213.5
2016-Jun-16 06:33N 52°03' E 003°50'1211.8
2016-Jun-16 05:33N 51°59' E 004°07'9 0.6
2016-Jun-15 15:05N 51°53' E 004°18'0 0.0
2016-Jun-14 21:14N 51°53' E 004°18'0 0.0
2016-Jun-14 20:32N 51°53' E 004°18'0 0.0
2016-Jun-14 19:32N 51°53' E 004°18'0 0.0
2016-Jun-14 18:32N 51°53' E 004°18'0 0.0
2016-Jun-14 17:26N 51°53' E 004°18'0 0.0
2016-Jun-14 16:29N 51°53' E 004°18'0 0.0
2016-Jun-14 15:29N 51°53' E 004°18'0 0.0
2016-Jun-14 14:34N 51°53' E 004°18'0 0.0
2016-Jun-14 13:34N 51°53' E 004°18'0 0.0
2016-Jun-14 12:34N 51°53' E 004°18'0 0.0
2016-Jun-14 11:33N 51°53' E 004°18'0 0.0
2016-Jun-14 10:33N 51°53' E 004°18'0 0.0
2016-Jun-14 09:34N 51°53' E 004°18'0 0.0
2016-Jun-14 08:34N 51°53' E 004°18'0 0.0
2016-Jun-14 07:34N 51°53' E 004°18'0 0.0
2016-Jun-14 05:34N 51°53' E 004°18'0 0.0
2016-Jun-14 04:33N 51°53' E 004°18'0 0.0
2016-Jun-14 03:33N 51°53' E 004°18'0 0.0
2016-Jun-14 02:34N 51°53' E 004°18'0 0.1
2016-Jun-14 01:34N 51°53' E 004°18'5 5.3
2016-Jun-14 00:33N 51°56' E 004°12'1010.0
2016-Jun-13 23:33N 52°00' E 003°57'30 9.1
2016-Jun-13 20:13N 51°41' E 003°18'913.1
2016-Jun-13 19:33N 51°34' E 003°25'1110.8
2016-Jun-13 18:33N 51°26' E 003°36'7 7.5
2016-Jun-13 17:33N 51°22' E 003°46'9 9.3
2016-Jun-13 16:33N 51°26' E 003°59'9 8.7
2016-Jun-13 15:33N 51°24' E 004°13'8 8.4
2016-Jun-13 14:33N 51°17' E 004°20'0 0.2
2016-Jun-13 13:28N 51°17' E 004°20'0 0.2
2016-Jun-13 12:31N 51°17' E 004°20'0 0.0
2016-Jun-13 11:33N 51°17' E 004°20'0 0.0
2016-Jun-13 10:33N 51°17' E 004°20'0 0.0
2016-Jun-13 09:33N 51°17' E 004°20'0 0.0
2016-Jun-13 08:33N 51°17' E 004°20'0 0.0
2016-Jun-13 07:33N 51°17' E 004°20'0 0.0
2016-Jun-13 06:33N 51°17' E 004°20'0 0.0
2016-Jun-13 05:33N 51°17' E 004°20'0 0.0
2016-Jun-13 04:33N 51°17' E 004°20'0 0.0
2016-Jun-13 03:33N 51°17' E 004°20'0 0.0
2016-Jun-13 02:33N 51°17' E 004°20'0 0.0
2016-Jun-13 01:33N 51°17' E 004°20'0 0.0
2016-Jun-13 00:33N 51°17' E 004°20'0 0.0
2016-Jun-12 23:33N 51°17' E 004°20'0 0.0
2016-Jun-12 22:33N 51°17' E 004°20'0 0.0
2016-Jun-12 21:33N 51°17' E 004°20'0 0.0
2016-Jun-12 20:33N 51°17' E 004°20'0 0.0
2016-Jun-12 19:33N 51°17' E 004°20'0 0.0
2016-Jun-12 18:33N 51°17' E 004°20'0 0.0
2016-Jun-12 17:33N 51°17' E 004°20'0 0.0
2016-Jun-12 16:33N 51°17' E 004°20'4 4.3
2016-Jun-12 15:34N 51°21' E 004°18'0 0.5
2016-Jun-12 14:33N 51°21' E 004°17'7 7.0
2016-Jun-12 13:33N 51°22' E 004°06'5 5.4
2016-Jun-12 12:33N 51°24' E 003°57'8 8.3
2016-Jun-12 11:33N 51°22' E 003°44'7 7.3
2016-Jun-12 10:33N 51°26' E 003°34'10 9.6
2016-Jun-12 09:33N 51°24' E 003°19'1110.6
2016-Jun-12 08:32N 51°24' E 003°01'1111.1
2016-Jun-12 07:33N 51°21' E 002°44'7 5.1
2016-Jun-12 06:08N 51°20' E 002°33'0 0.0
2016-Jun-12 04:32N 51°20' E 002°33'0 0.1
2016-Jun-12 03:32N 51°20' E 002°33'0 0.1
2016-Jun-12 02:33N 51°20' E 002°33'0 0.0
2016-Jun-12 01:33N 51°20' E 002°33'0 0.0
2016-Jun-12 00:33N 51°20' E 002°33'0 0.0
2016-Jun-11 23:33N 51°20' E 002°33'0 0.0
2016-Jun-11 22:33N 51°20' E 002°33'0 0.1
2016-Jun-11 21:32N 51°20' E 002°33'0 0.0
2016-Jun-11 20:33N 51°20' E 002°33'0 0.0
2016-Jun-11 19:30N 51°20' E 002°33'0 0.0
2016-Jun-11 18:33N 51°20' E 002°33'0 0.0
2016-Jun-11 17:18N 51°20' E 002°33'0 0.0
2016-Jun-11 16:33N 51°20' E 002°33'0 0.1
2016-Jun-11 15:33N 51°20' E 002°33'0 0.1
2016-Jun-11 14:33N 51°20' E 002°33'0 0.0
2016-Jun-11 13:33N 51°20' E 002°33'0 0.0
2016-Jun-11 12:33N 51°20' E 002°33'0 0.0
2016-Jun-11 11:16N 51°20' E 002°33'0 0.1
2016-Jun-11 10:33N 51°20' E 002°33'0 0.1
2016-Jun-11 09:31N 51°20' E 002°33'0 0.1
2016-Jun-11 08:33N 51°20' E 002°33'0 0.0
2016-Jun-11 07:34N 51°20' E 002°33'0 0.0
2016-Jun-11 06:33N 51°20' E 002°33'0 0.0
2016-Jun-11 05:33N 51°20' E 002°33'  

Dump ship's entire track history